Time;durP1;ratioP1;P1;durP2;ratioP2;P2;SDS_P1;SDS_P2;PMS_P1;PMS_P2;Temp;Humidity;BMP_temperature;BMP_pressure;BME280_temperature;BME280_humidity;BME280_pressure;Samples;Min_cycle;Max_cycle;Signal;HPM_P1;HPM_P2
2022/05/28 00:00:59;;;;;;;;;;;563.50;2432.00;;;;;;5117303;28;19904;-81
2022/05/28 00:03:26;;;;;;;;;;;563.20;2432.00;;;;;;5118449;28;20571;-82
2022/05/28 00:05:52;;;;;;;;;;;563.30;2432.00;;;;;;5116441;28;19904;-81
2022/05/28 00:08:17;;;;;;;;;;;563.20;2432.00;;;;;;5116978;28;20260;-81
2022/05/28 00:10:44;;;;;;;;;;;563.30;2432.00;;;;;;5116577;28;19911;-82
2022/05/28 00:13:10;;;;;;;;;;;563.50;2432.00;;;;;;5135460;28;19904;-81
2022/05/28 00:15:36;;;;;;;;;;;563.50;2432.00;;;;;;5140040;28;19921;-81
2022/05/28 00:18:01;;;;;;;;;;;563.60;2432.00;;;;;;5138664;28;19957;-80
2022/05/28 00:20:28;;;;;;;;;;;563.50;2432.00;;;;;;5138908;28;19887;-82
2022/05/28 00:22:53;;;;;;;;;;;563.40;2432.00;;;;;;5120130;28;19991;-80
2022/05/28 00:25:19;;;;;;;;;;;563.50;2432.00;;;;;;5115412;28;19942;-81
2022/05/28 00:27:45;;;;;;;;;;;563.50;2432.00;;;;;;5116075;28;19914;-81
2022/05/28 00:30:13;;;;;;;;;;;563.40;2432.00;;;;;;5115678;28;20341;-81
2022/05/28 00:32:38;;;;;;;;;;;563.50;2432.00;;;;;;5115087;28;19904;-81
2022/05/28 00:35:05;;;;;;;;;;;563.50;2432.00;;;;;;5115394;28;19911;-81
2022/05/28 00:37:31;;;;;;;;;;;563.60;2432.00;;;;;;5114830;28;19956;-80
2022/05/28 00:39:57;;;;;;;;;;;563.60;2432.00;;;;;;5115341;28;19919;-81
2022/05/28 00:42:22;;;;;;;;;;;563.60;2432.00;;;;;;5115132;28;19904;-81
2022/05/28 00:44:48;;;;;;;;;;;563.60;2432.00;;;;;;5114554;28;19911;-81
2022/05/28 00:47:14;;;;;;;;;;;563.60;2432.00;;;;;;5114505;28;19903;-81
2022/05/28 00:49:40;;;;;;;;;;;563.40;2432.00;;;;;;5116150;28;19908;-81
2022/05/28 00:52:09;;;;;;;;;;;563.40;2432.00;;;;;;5115060;28;19908;-79
2022/05/28 00:54:41;;;;;;;;;;;563.30;2432.00;;;;;;5114670;28;19912;-80
2022/05/28 00:57:08;;;;;;;;;;;563.30;2432.00;;;;;;5114348;28;19903;-79
2022/05/28 00:59:34;;;;;;;;;;;563.20;2432.00;;;;;;5115676;28;19938;-80
2022/05/28 01:02:21;;;;;;;;;;;538.40;2406.40;;;;;;5114746;28;20364;-80
2022/05/28 01:04:56;;;;;;;;;;;538.40;2406.40;;;;;;5115151;28;19908;-80
2022/05/28 01:07:35;;;;;;;;;;;538.30;2406.40;;;;;;5114589;28;19957;-80
2022/05/28 01:10:21;;;;;;;;;;;538.30;2406.40;;;;;;5115070;28;19910;-80
2022/05/28 01:12:52;;;;;;;;;;;538.30;2406.40;;;;;;5114294;28;20257;-79
2022/05/28 01:15:20;;;;;;;;;;;538.20;2406.40;;;;;;5114118;28;19918;-79
2022/05/28 01:17:48;;;;;;;;;;;538.10;2406.40;;;;;;5114726;28;19908;-80
2022/05/28 01:20:26;;;;;;;;;;;538.10;2406.40;;;;;;5113970;28;19904;-79
2022/05/28 01:22:57;;;;;;;;;;;538.30;2406.40;;;;;;5114911;28;19911;-80
2022/05/28 01:25:38;;;;;;;;;;;538.20;2406.40;;;;;;5114838;28;19910;-80
2022/05/28 01:28:06;;;;;;;;;;;538.20;2406.40;;;;;;5114421;28;19904;-80
2022/05/28 01:30:32;;;;;;;;;;;538.00;2406.40;;;;;;5114908;28;19910;-81
2022/05/28 01:32:58;;;;;;;;;;;538.00;2406.40;;;;;;5114501;28;19998;-80
2022/05/28 01:35:25;;;;;;;;;;;537.90;2406.40;;;;;;5114215;28;19918;-80
2022/05/28 01:37:51;;;;;;;;;;;537.80;2406.40;;;;;;5131665;28;19985;-79
2022/05/28 01:40:18;;;;;;;;;;;537.70;2406.40;;;;;;5139083;28;19903;-81
2022/05/28 01:42:47;;;;;;;;;;;537.90;2406.40;;;;;;5125391;28;20006;-80
2022/05/28 01:45:13;;;;;;;;;;;538.00;2406.40;;;;;;5114046;28;19916;-81
2022/05/28 01:47:39;;;;;;;;;;;538.00;2406.40;;;;;;5114378;28;19904;-81
2022/05/28 01:50:06;;;;;;;;;;;537.90;2406.40;;;;;;5114346;28;19908;-81
2022/05/28 01:52:32;;;;;;;;;;;537.90;2406.40;;;;;;5114217;28;19904;-81
2022/05/28 01:54:59;;;;;;;;;;;537.70;2406.40;;;;;;5114166;28;19961;-80
2022/05/28 01:57:24;;;;;;;;;;;537.70;2406.40;;;;;;5112563;28;20010;-81
2022/05/28 01:59:51;;;;;;;;;;;537.70;2406.40;;;;;;5115042;27;19953;-81
2022/05/28 02:02:17;;;;;;;;;;;537.60;2406.40;;;;;;5113351;28;20041;-80
2022/05/28 02:04:43;;;;;;;;;;;512.80;2380.80;;;;;;5113878;28;19994;-80
2022/05/28 02:07:09;;;;;;;;;;;537.60;2406.40;;;;;;5114580;28;19911;-80
2022/05/28 02:09:37;;;;;;;;;;;537.60;2406.40;;;;;;5113810;28;19907;-81
2022/05/28 02:12:03;;;;;;;;;;;512.90;2380.80;;;;;;5113619;28;20333;-80
2022/05/28 02:14:47;;;;;;;;;;;512.90;2380.80;;;;;;5114642;28;19918;-80
2022/05/28 02:17:31;;;;;;;;;;;512.90;2380.80;;;;;;5114940;28;19910;-80
2022/05/28 02:20:02;;;;;;;;;;;537.70;2406.40;;;;;;5113692;28;19904;-80
2022/05/28 02:22:48;;;;;;;;;;;537.70;2406.40;;;;;;5114881;28;19904;-80
2022/05/28 02:25:17;;;;;;;;;;;512.90;2380.80;;;;;;5113546;28;19904;-81
2022/05/28 02:27:44;;;;;;;;;;;537.60;2406.40;;;;;;5112954;28;19903;-81
2022/05/28 02:30:10;;;;;;;;;;;512.90;2380.80;;;;;;5113016;28;20277;-81
2022/05/28 02:32:36;;;;;;;;;;;512.80;2380.80;;;;;;5113362;28;19935;-80
2022/05/28 02:35:01;;;;;;;;;;;512.80;2380.80;;;;;;5112640;28;20011;-80
2022/05/28 02:37:29;;;;;;;;;;;512.90;2380.80;;;;;;5112266;28;19910;-80
2022/05/28 02:39:57;;;;;;;;;;;512.90;2380.80;;;;;;5114790;28;19916;-81
2022/05/28 02:42:23;;;;;;;;;;;563.40;2432.00;;;;;;5113527;28;19903;-81
2022/05/28 02:44:49;;;;;;;;;;;537.60;2406.40;;;;;;5113308;28;20372;-80
2022/05/28 02:47:15;;;;;;;;;;;512.80;2380.80;;;;;;5112144;28;19904;-81
2022/05/28 02:49:40;;;;;;;;;;;512.60;2380.80;;;;;;5114658;28;19904;-80
2022/05/28 02:52:06;;;;;;;;;;;512.70;2380.80;;;;;;5113197;28;19993;-81
2022/05/28 02:54:32;;;;;;;;;;;512.70;2380.80;;;;;;5112315;28;19919;-80
2022/05/28 02:56:58;;;;;;;;;;;512.70;2380.80;;;;;;5113230;28;19903;-80
2022/05/28 02:59:24;;;;;;;;;;;512.70;2380.80;;;;;;5113048;28;19904;-81
2022/05/28 03:01:50;;;;;;;;;;;512.70;2380.80;;;;;;5113801;28;19910;-80
2022/05/28 03:04:16;;;;;;;;;;;512.80;2380.80;;;;;;5113128;28;20310;-80
2022/05/28 03:06:41;;;;;;;;;;;512.70;2380.80;;;;;;5112906;28;19908;-81
2022/05/28 03:09:08;;;;;;;;;;;512.50;2380.80;;;;;;5114723;28;19904;-81
2022/05/28 03:11:35;;;;;;;;;;;512.50;2380.80;;;;;;5117595;28;19904;-81
2022/05/28 03:14:00;;;;;;;;;;;512.60;2380.80;;;;;;5118315;28;19911;-81
2022/05/28 03:16:26;;;;;;;;;;;512.60;2380.80;;;;;;5117161;28;19981;-81
2022/05/28 03:18:52;;;;;;;;;;;512.70;2380.80;;;;;;5117073;28;20265;-81
2022/05/28 03:21:18;;;;;;;;;;;512.80;2380.80;;;;;;5117251;28;19904;-81
2022/05/28 03:23:47;;;;;;;;;;;512.80;2380.80;;;;;;5117050;28;19953;-81
2022/05/28 03:26:14;;;;;;;;;;;512.80;2380.80;;;;;;5116455;28;20333;-81
2022/05/28 03:28:40;;;;;;;;;;;512.80;2380.80;;;;;;5116655;28;19914;-81
2022/05/28 03:31:06;;;;;;;;;;;512.80;2380.80;;;;;;5116567;28;20376;-81
2022/05/28 03:33:31;;;;;;;;;;;512.80;2380.80;;;;;;5116893;28;19904;-81
2022/05/28 03:35:57;;;;;;;;;;;512.80;2380.80;;;;;;5115999;28;19950;-81
2022/05/28 03:38:23;;;;;;;;;;;512.90;2380.80;;;;;;5116817;28;19947;-81
2022/05/28 03:40:48;;;;;;;;;;;512.90;2380.80;;;;;;5116290;28;19939;-81
2022/05/28 03:43:14;;;;;;;;;;;512.80;2380.80;;;;;;5115965;28;19994;-80
2022/05/28 03:45:40;;;;;;;;;;;512.70;2380.80;;;;;;5116698;28;20271;-82
2022/05/28 03:48:07;;;;;;;;;;;512.70;2380.80;;;;;;5116329;28;19907;-81
2022/05/28 03:50:33;;;;;;;;;;;512.60;2380.80;;;;;;5116684;28;20364;-80
2022/05/28 03:52:58;;;;;;;;;;;512.70;2380.80;;;;;;5118163;28;19904;-82
2022/05/28 03:55:24;;;;;;;;;;;512.80;2380.80;;;;;;5116252;28;19911;-81
2022/05/28 03:57:49;;;;;;;;;;;537.60;2406.40;;;;;;5117116;28;19903;-80
2022/05/28 04:00:16;;;;;;;;;;;537.60;2406.40;;;;;;5115649;28;19937;-81
2022/05/28 04:02:41;;;;;;;;;;;538.30;2406.40;;;;;;5115781;28;19960;-80
2022/05/28 04:05:07;;;;;;;;;;;538.10;2406.40;;;;;;5116197;28;19904;-80
2022/05/28 04:07:33;;;;;;;;;;;538.30;2406.40;;;;;;5116467;28;19908;-81
2022/05/28 04:09:59;;;;;;;;;;;537.90;2406.40;;;;;;5116001;28;19927;-81
2022/05/28 04:12:25;;;;;;;;;;;537.70;2406.40;;;;;;5116276;28;20397;-82
2022/05/28 04:14:50;;;;;;;;;;;538.00;2406.40;;;;;;5116358;28;19915;-81
2022/05/28 04:17:16;;;;;;;;;;;563.20;2432.00;;;;;;5115108;28;19904;-80
2022/05/28 04:19:42;;;;;;;;;;;538.00;2406.40;;;;;;5115932;28;20257;-81
2022/05/28 04:22:08;;;;;;;;;;;537.80;2406.40;;;;;;5115314;28;20314;-82
2022/05/28 04:24:33;;;;;;;;;;;537.90;2406.40;;;;;;5115819;28;19904;-81
2022/05/28 04:26:59;;;;;;;;;;;537.90;2406.40;;;;;;5115824;28;20416;-81
2022/05/28 04:29:25;;;;;;;;;;;537.70;2406.40;;;;;;5098892;28;19912;-81
2022/05/28 04:31:50;;;;;;;;;;;512.90;2380.80;;;;;;5095404;28;19987;-82
2022/05/28 04:34:16;;;;;;;;;;;512.80;2380.80;;;;;;5095412;28;19934;-82
2022/05/28 04:36:41;;;;;;;;;;;512.70;2380.80;;;;;;5097186;28;19904;-82
2022/05/28 04:39:07;;;;;;;;;;;512.70;2380.80;;;;;;5094211;28;19916;-81
2022/05/28 04:41:33;;;;;;;;;;;512.70;2380.80;;;;;;5095378;28;19904;-82
2022/05/28 04:43:58;;;;;;;;;;;512.70;2380.80;;;;;;5095100;28;20002;-81
2022/05/28 04:46:24;;;;;;;;;;;512.80;2380.80;;;;;;5094985;28;19950;-82
2022/05/28 04:48:50;;;;;;;;;;;512.80;2380.80;;;;;;5095274;28;19904;-82
2022/05/28 04:51:15;;;;;;;;;;;512.80;2380.80;;;;;;5094860;28;19908;-82
2022/05/28 04:53:41;;;;;;;;;;;512.90;2380.80;;;;;;5094061;28;19911;-81
2022/05/28 04:56:07;;;;;;;;;;;537.60;2406.40;;;;;;5094850;28;20006;-82
2022/05/28 04:58:33;;;;;;;;;;;537.70;2406.40;;;;;;5105122;28;20316;-81
2022/05/28 05:00:58;;;;;;;;;;;537.70;2406.40;;;;;;5095179;28;19994;-82
2022/05/28 05:03:24;;;;;;;;;;;537.70;2406.40;;;;;;5094590;28;19988;-81
2022/05/28 05:05:50;;;;;;;;;;;537.70;2406.40;;;;;;5094317;28;19911;-82
2022/05/28 05:08:16;;;;;;;;;;;537.80;2406.40;;;;;;5094693;28;19953;-81
2022/05/28 05:10:44;;;;;;;;;;;537.80;2406.40;;;;;;5094647;28;19911;-82
2022/05/28 05:13:09;;;;;;;;;;;538.00;2406.40;;;;;;5094780;28;19961;-82
2022/05/28 05:15:35;;;;;;;;;;;538.00;2406.40;;;;;;5095954;28;19920;-81
2022/05/28 05:18:00;;;;;;;;;;;537.90;2406.40;;;;;;5094895;28;19953;-82
2022/05/28 05:20:26;;;;;;;;;;;537.90;2406.40;;;;;;5093418;28;19904;-82
2022/05/28 05:22:52;;;;;;;;;;;538.00;2406.40;;;;;;5094750;28;19911;-82
2022/05/28 05:25:18;;;;;;;;;;;537.90;2406.40;;;;;;5094428;28;20410;-83
2022/05/28 05:27:44;;;;;;;;;;;537.90;2406.40;;;;;;5095598;28;19908;-82
2022/05/28 05:30:10;;;;;;;;;;;537.90;2406.40;;;;;;5114765;28;19907;-82
2022/05/28 05:32:35;;;;;;;;;;;538.00;2406.40;;;;;;5114744;28;19908;-81
2022/05/28 05:35:01;;;;;;;;;;;538.10;2406.40;;;;;;5113828;28;19911;-82
2022/05/28 05:37:26;;;;;;;;;;;538.10;2406.40;;;;;;5115196;28;19912;-81
2022/05/28 05:39:52;;;;;;;;;;;538.20;2406.40;;;;;;5114325;28;19981;-83
2022/05/28 05:42:18;;;;;;;;;;;538.20;2406.40;;;;;;5115151;28;19910;-82
2022/05/28 05:44:43;;;;;;;;;;;538.20;2406.40;;;;;;5115468;28;19908;-80
2022/05/28 05:47:09;;;;;;;;;;;538.20;2406.40;;;;;;5114205;28;19951;-82
2022/05/28 05:49:36;;;;;;;;;;;538.30;2406.40;;;;;;5114947;28;19966;-82
2022/05/28 05:52:04;;;;;;;;;;;538.30;2406.40;;;;;;5114488;28;19904;-81
2022/05/28 05:54:29;;;;;;;;;;;538.40;2406.40;;;;;;5114287;28;20353;-82
2022/05/28 05:56:55;;;;;;;;;;;538.50;2406.40;;;;;;5114294;28;19976;-83
2022/05/28 05:59:22;;;;;;;;;;;563.20;2432.00;;;;;;5114268;28;19904;-82
2022/05/28 06:01:47;;;;;;;;;;;538.50;2406.40;;;;;;5115477;28;19903;-82
2022/05/28 06:04:13;;;;;;;;;;;563.40;2432.00;;;;;;5114445;28;20356;-82
2022/05/28 06:06:39;;;;;;;;;;;563.40;2432.00;;;;;;5114390;28;19903;-82
2022/05/28 06:09:05;;;;;;;;;;;563.60;2432.00;;;;;;5113430;28;19904;-82
2022/05/28 06:11:31;;;;;;;;;;;563.70;2432.00;;;;;;5115599;28;20403;-81
2022/05/28 06:13:56;;;;;;;;;;;563.80;2432.00;;;;;;5114050;28;19904;-82
2022/05/28 06:16:22;;;;;;;;;;;563.80;2432.00;;;;;;5113307;28;19908;-82
2022/05/28 06:18:48;;;;;;;;;;;563.80;2432.00;;;;;;5113708;28;19996;-85
2022/05/28 06:21:13;;;;;;;;;;;564.00;2432.00;;;;;;5113978;28;19918;-82
2022/05/28 06:23:41;;;;;;;;;;;564.10;2432.00;;;;;;5113414;28;19912;-83
2022/05/28 06:26:07;;;;;;;;;;;588.80;2432.00;;;;;;5114205;28;19929;-82
2022/05/28 06:28:33;;;;;;;;;;;589.00;2432.00;;;;;;5114377;28;19908;-83
2022/05/28 06:31:08;;;;;;;;;;;589.00;2432.00;;;;;;5114655;28;20383;-81
2022/05/28 06:33:35;;;;;;;;;;;589.10;2432.00;;;;;;5114852;28;19969;-82
2022/05/28 06:36:02;;;;;;;;;;;589.30;2432.00;;;;;;5116409;28;19950;-81
2022/05/28 06:38:28;;;;;;;;;;;589.40;2432.00;;;;;;5115185;28;19954;-82
2022/05/28 06:40:54;;;;;;;;;;;589.10;2432.00;;;;;;5115752;28;19908;-81
2022/05/28 06:43:20;;;;;;;;;;;589.70;2432.00;;;;;;5112402;28;19911;-81
2022/05/28 06:45:46;;;;;;;;;;;589.70;2432.00;;;;;;5113836;28;19973;-81
2022/05/28 06:48:12;;;;;;;;;;;589.60;2432.00;;;;;;5113297;28;19903;-81
2022/05/28 06:53:22;;;;;;;;;;;614.60;2432.00;;;;;;5121105;28;19910;-79
2022/05/28 06:55:48;;;;;;;;;;;614.90;2432.00;;;;;;5117670;28;19954;-78
2022/05/28 06:58:14;;;;;;;;;;;615.00;2432.00;;;;;;5116540;28;19955;-85
2022/05/28 07:00:40;;;;;;;;;;;614.60;2432.00;;;;;;5113448;28;19930;-79
2022/05/28 07:03:06;;;;;;;;;;;614.80;2432.00;;;;;;5113489;28;20361;-81
2022/05/28 07:05:32;;;;;;;;;;;614.70;2432.00;;;;;;5114141;28;19904;-80
2022/05/28 07:07:57;;;;;;;;;;;614.80;2432.00;;;;;;5112416;28;19904;-79
2022/05/28 07:10:23;;;;;;;;;;;615.20;2432.00;;;;;;5114071;28;20280;-79
2022/05/28 07:12:49;;;;;;;;;;;615.30;2432.00;;;;;;5112066;28;19911;-78
2022/05/28 07:15:15;;;;;;;;;;;615.30;2432.00;;;;;;5111515;28;19919;-78
2022/05/28 07:17:41;;;;;;;;;;;640.00;2432.00;;;;;;5113067;28;20409;-79
2022/05/28 07:20:07;;;;;;;;;;;640.10;2432.00;;;;;;5112747;28;19969;-80
2022/05/28 07:22:32;;;;;;;;;;;640.00;2432.00;;;;;;5113001;28;19904;-80
2022/05/28 07:24:58;;;;;;;;;;;615.30;2432.00;;;;;;5112362;28;19990;-80
2022/05/28 07:27:25;;;;;;;;;;;640.10;2432.00;;;;;;5112137;28;20344;-80
2022/05/28 07:29:53;;;;;;;;;;;640.50;2432.00;;;;;;5112939;28;19907;-80
2022/05/28 07:32:19;;;;;;;;;;;640.80;2432.00;;;;;;5112907;28;19908;-79
2022/05/28 07:34:44;;;;;;;;;;;665.70;2432.00;;;;;;5112863;28;19912;-78
2022/05/28 07:37:10;;;;;;;;;;;666.00;2432.00;;;;;;5112942;28;19903;-77
2022/05/28 07:39:36;;;;;;;;;;;666.30;2432.00;;;;;;5113319;28;19919;-79
2022/05/28 07:42:05;;;;;;;;;;;666.50;2432.00;;;;;;5112919;28;19908;-78
2022/05/28 07:44:30;;;;;;;;;;;666.10;2432.00;;;;;;5112751;28;19904;-79
2022/05/28 07:46:56;;;;;;;;;;;640.90;2432.00;;;;;;5113711;28;19961;-79
2022/05/28 07:49:22;;;;;;;;;;;666.00;2432.00;;;;;;5112691;28;19949;-78
2022/05/28 07:51:47;;;;;;;;;;;666.10;2432.00;;;;;;5112745;28;19973;-79
2022/05/28 07:54:16;;;;;;;;;;;666.30;2432.00;;;;;;5112280;28;19919;-78
2022/05/28 07:56:41;;;;;;;;;;;666.30;2432.00;;;;;;5116481;28;19947;-78
2022/05/28 07:59:07;;;;;;;;;;;666.00;2432.00;;;;;;5116631;28;19911;-78
2022/05/28 08:01:35;;;;;;;;;;;666.40;2432.00;;;;;;5116068;28;19911;-80
2022/05/28 08:04:00;;;;;;;;;;;691.50;2432.00;;;;;;5116296;28;20344;-78
2022/05/28 08:08:53;;;;;;;11.18;5.55;;;666.40;2432.00;;;;;;5111407;27;20384;-80
2022/05/28 08:11:21;;;;;;;13.88;4.82;;;666.50;2432.00;;;;;;5127308;28;20032;-80
2022/05/28 08:13:47;;;;;;;14.55;6.15;;;666.40;2432.00;;;;;;5111312;28;20028;-80
2022/05/28 08:16:13;;;;;;;13.23;6.10;;;665.90;2432.00;;;;;;5127458;28;20024;-80
2022/05/28 08:18:39;;;;;;;16.08;5.82;;;665.90;2432.00;;;;;;5126970;28;20032;-80
2022/05/28 08:23:50;;;;;;;14.50;5.63;;;666.10;2432.00;;;;;;5111125;28;20034;-80
2022/05/28 08:26:19;;;;;;;15.02;6.55;;;666.40;2432.00;;;;;;5126865;28;20028;-80
2022/05/28 08:28:47;;;;;;;15.32;5.72;;;691.30;2432.00;;;;;;5126260;28;20036;-80
2022/05/28 08:31:13;;;;;;;13.90;5.40;;;691.50;2432.00;;;;;;5126782;28;20375;-83
2022/05/28 08:33:39;;;;;;;12.85;5.47;;;691.80;2432.00;;;;;;5126906;28;20130;-81
2022/05/28 08:36:05;;;;;;;18.55;5.78;;;691.90;2432.00;;;;;;5126737;28;20036;-82
2022/05/28 08:38:32;;;;;;;12.95;5.88;;;692.00;2406.40;;;;;;5126753;28;20028;-81
2022/05/28 08:41:00;;;;;;;14.48;5.53;;;692.10;2406.40;;;;;;5126830;28;20028;-82
2022/05/28 08:43:29;;;;;;;13.10;5.45;;;692.10;2380.80;;;;;;5110956;28;20066;-80
2022/05/28 08:45:54;;;;;;;13.90;6.22;;;716.90;2355.20;;;;;;5126444;28;20051;-82
2022/05/28 08:48:34;;;;;;;13.05;5.55;;;717.10;2304.00;;;;;;5126736;28;20059;-81
2022/05/28 08:51:07;;;;;;;11.25;5.22;;;717.30;2278.40;;;;;;5126957;28;20062;-81
2022/05/28 08:53:38;;;;;;;23.33;7.10;;;717.20;2278.40;;;;;;5125194;28;20160;-82
2022/05/28 08:56:04;;;;;;;10.80;5.20;;;717.20;2278.40;;;;;;5109149;28;20496;-79
2022/05/28 08:58:33;;;;;;;13.95;5.75;;;717.50;2252.80;;;;;;5109463;28;20055;-82
2022/05/28 09:01:05;;;;;;;14.98;6.38;;;717.60;2252.80;;;;;;5109824;28;20020;-83
2022/05/28 09:03:51;;;;;;;17.65;5.47;;;742.40;2278.40;;;;;;5110085;28;20024;-83
2022/05/28 09:06:24;;;;;;;14.23;5.50;;;742.50;2278.40;;;;;;5109985;28;20114;-81
2022/05/28 09:08:53;;;;;;;12.30;6.35;;;742.50;2227.20;;;;;;5109692;28;20044;-83
2022/05/28 09:11:32;;;;;;;23.98;6.32;;;742.60;2252.80;;;;;;5109553;28;20032;-78
2022/05/28 09:14:08;;;;;;;15.73;6.25;;;742.80;2227.20;;;;;;5108951;28;20024;-78
2022/05/28 09:16:36;;;;;;;18.10;6.03;;;717.70;2227.20;;;;;;5109852;28;20031;-80
2022/05/28 09:19:16;;;;;;;15.88;5.53;;;717.50;2252.80;;;;;;5101382;28;20020;-80
2022/05/28 09:21:44;;;;;;;17.27;5.95;;;717.30;2252.80;;;;;;5095365;28;20024;-80
2022/05/28 09:24:16;;;;;;;13.35;5.75;;;717.50;2278.40;;;;;;5096428;28;20056;-83
2022/05/28 09:27:03;;;;;;;16.48;5.80;;;742.50;2227.20;;;;;;5096348;28;20097;-80
2022/05/28 09:29:56;;;;;;;19.88;5.55;;;742.60;2201.60;;;;;;5094844;28;20537;-81
2022/05/28 09:32:58;;;;;;;15.80;5.22;;;743.00;2176.00;;;;;;5094989;28;20020;-79
2022/05/28 09:35:42;;;;;;;16.13;7.32;;;768.00;2150.40;;;;;;5096112;28;20016;-84
2022/05/28 09:38:20;;;;;;;18.13;8.38;;;768.10;2124.80;;;;;;5092858;28;21479;-82
2022/05/28 09:40:58;;;;;;;13.38;6.10;;;743.10;2124.80;;;;;;5094916;28;20038;-81
2022/05/28 09:43:59;;;;;;;13.10;6.50;;;743.10;2124.80;;;;;;5084904;28;20028;-81
2022/05/28 09:46:36;;;;;;;14.73;5.10;;;743.30;2124.80;;;;;;5075959;28;20035;-82
2022/05/28 09:49:19;;;;;;;16.23;5.35;;;768.20;2099.20;;;;;;5076245;28;20537;-86
2022/05/28 09:51:57;;;;;;;15.77;5.00;;;768.40;2073.60;;;;;;5075558;28;20051;-83
2022/05/28 09:54:30;;;;;;;17.92;6.03;;;768.00;2073.60;;;;;;5075151;28;20120;-83
2022/05/28 09:57:17;;;;;;;12.68;6.07;;;743.30;2099.20;;;;;;5075827;28;20032;-82
2022/05/28 09:59:43;;;;;;;13.55;5.47;;;743.10;2099.20;;;;;;5112441;28;20024;-82
2022/05/28 10:02:17;;;;;;;14.80;5.05;;;743.30;2099.20;;;;;;5112326;28;20471;-84
2022/05/28 10:04:47;;;;;;;16.17;6.07;;;743.20;2073.60;;;;;;5112654;28;20043;-86
2022/05/28 10:07:13;;;;;;;18.92;9.48;;;768.30;2099.20;;;;;;5111755;28;20052;-84
2022/05/28 10:09:50;;;;;;;11.63;5.75;;;768.80;2073.60;;;;;;5112147;28;20031;-84
2022/05/28 10:12:27;;;;;;;13.98;5.60;;;768.60;2048.00;;;;;;5112322;28;20065;-84
2022/05/28 10:15:05;;;;;;;18.25;6.03;;;793.60;2048.00;;;;;;5095350;28;20371;-83
2022/05/28 10:17:32;;;;;;;14.20;4.95;;;768.90;2022.40;;;;;;5095238;28;20070;-84
2022/05/28 10:20:01;;;;;;;10.20;5.35;;;768.50;2022.40;;;;;;5094955;28;20020;-86
2022/05/28 10:22:29;;;;;;;14.75;5.97;;;768.80;2048.00;;;;;;5094990;28;20563;-82
2022/05/28 10:24:59;;;;;;;20.98;6.38;;;768.50;2022.40;;;;;;5094875;28;20380;-84
2022/05/28 10:27:49;;;;;;;16.00;5.65;;;768.80;2022.40;;;;;;5094802;28;20028;-83
2022/05/28 10:30:42;;;;;;;13.45;4.80;;;793.80;2048.00;;;;;;5094136;28;20475;-83
2022/05/28 10:33:19;;;;;;;11.88;5.25;;;794.20;1971.20;;;;;;5093008;28;20062;-85
2022/05/28 10:35:46;;;;;;;18.42;5.57;;;768.80;1971.20;;;;;;5094927;28;20479;-86
2022/05/28 10:38:14;;;;;;;12.13;4.78;;;768.80;1971.20;;;;;;5094669;28;20032;-83
2022/05/28 10:40:51;;;;;;;11.65;5.53;;;793.60;1996.80;;;;;;5094728;28;20028;-84
2022/05/28 10:43:32;;;;;;;12.23;5.20;;;793.70;1971.20;;;;;;5094505;28;20517;-82
2022/05/28 10:46:13;;;;;;;12.35;5.38;;;793.70;1996.80;;;;;;5094508;28;20481;-83
2022/05/28 10:48:58;;;;;;;10.70;4.40;;;793.70;1945.60;;;;;;5095678;28;20036;-83
2022/05/28 10:52:10;;;;;;;11.77;4.63;;;768.80;1945.60;;;;;;5094390;28;20063;-84
2022/05/28 10:54:58;;;;;;;17.15;5.88;;;793.70;1996.80;;;;;;5084186;28;20071;-83
2022/05/28 10:57:35;;;;;;;15.15;6.95;;;794.10;1996.80;;;;;;5094126;28;20085;-80
2022/05/28 11:00:11;;;;;;;13.23;6.35;;;794.30;1971.20;;;;;;5093288;28;20437;-81
2022/05/28 11:03:15;;;;;;;10.20;5.13;;;794.50;1971.20;;;;;;5093908;28;20062;-80
2022/05/28 11:06:15;;;;;;;17.02;6.25;;;819.40;1996.80;;;;;;5093106;28;20040;-81
2022/05/28 11:09:10;;;;;;;16.30;5.32;;;819.50;1971.20;;;;;;5093222;28;20054;-78
2022/05/28 11:11:48;;;;;;;10.13;5.20;;;819.60;1945.60;;;;;;5093542;28;20031;-79
2022/05/28 11:14:45;;;;;;;8.88;5.10;;;819.30;1945.60;;;;;;5093421;28;20502;-82
2022/05/28 11:17:30;;;;;;;10.50;5.45;;;794.40;1971.20;;;;;;5093589;28;20376;-84
2022/05/28 11:20:25;;;;;;;14.20;6.25;;;794.10;1971.20;;;;;;5094460;28;20035;-80
2022/05/28 11:23:26;;;;;;;9.77;5.03;;;819.20;1971.20;;;;;;5093471;28;20039;-80
2022/05/28 11:26:09;;;;;;;13.50;5.78;;;819.50;1920.00;;;;;;5091096;28;20027;-80
2022/05/28 11:28:57;;;;;;;13.30;6.35;;;819.70;1945.60;;;;;;5093073;28;20093;-82
2022/05/28 11:31:43;;;;;;;15.82;5.32;;;819.70;1945.60;;;;;;5093153;28;20027;-83
2022/05/28 11:34:53;;;;;;;10.70;5.47;;;819.70;1920.00;;;;;;5053075;28;20476;-82
2022/05/28 11:37:39;;;;;;;14.98;5.07;;;819.20;1945.60;;;;;;5056915;28;20067;-83
2022/05/28 11:40:13;;;;;;;14.05;5.53;;;794.30;1996.80;;;;;;5073170;28;20167;-83
2022/05/28 11:43:03;;;;;;;11.38;4.65;;;794.00;1996.80;;;;;;5072697;28;20021;-82
2022/05/28 11:46:08;;;;;;;11.57;5.13;;;793.90;2022.40;;;;;;5073040;28;20158;-85
2022/05/28 11:51:37;;;;;;;12.30;5.60;;;768.60;2048.00;;;;;;5078124;28;20062;-82
2022/05/28 11:54:22;;;;;;;10.93;4.97;;;;;;;;;;5093818;28;20483;-82
2022/05/28 11:56:49;;;;;;;15.02;5.45;;;;;;;;;;5095706;28;20050;-83
2022/05/28 11:59:22;;;;;;;7.63;4.68;;;;;;;;;;5108154;28;20032;-82
2022/05/28 12:02:15;;;;;;;16.23;5.90;;;;;;;;;;5106382;28;20020;-81
2022/05/28 12:04:43;;;;;;;12.52;6.57;;;768.90;2099.20;;;;;;5096247;28;20036;-82
2022/05/28 12:07:28;;;;;;;15.10;6.65;;;768.40;2124.80;;;;;;5095952;28;20574;-83
2022/05/28 12:09:55;;;;;;;15.07;7.30;;;;;;;;;;5093016;28;20025;-84
2022/05/28 12:12:30;;;;;;;10.15;7.65;;;;;;;;;;5092703;28;20043;-83
2022/05/28 12:15:15;;;;;;;13.40;7.15;;;;;;;;;;5093149;28;20020;-84
2022/05/28 12:17:41;;;;;;;14.73;7.53;;;;;;;;;;5092712;28;20028;-85
2022/05/28 12:20:10;;;;;;;12.50;7.60;;;;;;;;;;5093024;28;20391;-83
2022/05/28 12:22:56;;;;;;;12.43;8.18;;;;;;;;;;5093170;28;20356;-84
2022/05/28 12:25:29;;;;;;;14.30;10.27;;;;;;;;;;5092883;28;20016;-83
2022/05/28 12:27:55;;;;;;;13.98;9.07;;;;;;;;;;5092409;28;20028;-82
2022/05/28 12:30:33;;;;;;;13.02;9.73;;;;;;;;;;5092349;28;20123;-84
2022/05/28 12:32:59;;;;;;;12.85;8.70;;;768.30;2150.40;;;;;;5092894;28;20130;-83
2022/05/28 12:35:31;;;;;;;18.20;9.60;;;768.40;2176.00;;;;;;5092886;28;20118;-85
2022/05/28 12:38:09;;;;;;;13.95;10.25;;;768.00;2201.60;;;;;;5092706;28;20028;-84
2022/05/28 12:40:59;;;;;;;15.80;10.88;;;743.10;2201.60;;;;;;5092958;28;20528;-82
2022/05/28 12:43:34;;;;;;;14.25;10.63;;;742.90;2227.20;;;;;;5092578;28;20114;-85
2022/05/28 12:46:34;;;;;;;18.20;10.48;;;742.60;2252.80;;;;;;5090862;28;20043;-84
2022/05/28 12:49:24;;;;;;;16.85;10.68;;;742.60;2252.80;;;;;;5092568;28;20487;-83
2022/05/28 12:51:49;;;;;;;14.38;10.82;;;742.40;2278.40;;;;;;5092335;28;20082;-83
2022/05/28 12:54:34;;;;;;;16.25;10.05;;;717.60;2278.40;;;;;;5094184;28;20024;-83
2022/05/28 12:57:13;;;;;;;11.65;10.25;;;717.50;2278.40;;;;;;5096355;28;20032;-83
2022/05/28 12:59:44;;;;;;;15.07;10.38;;;717.30;2304.00;;;;;;5096127;28;20050;-84
2022/05/28 13:02:16;;;;;;;14.93;11.43;;;717.20;2304.00;;;;;;5096490;28;20023;-83
2022/05/28 13:05:12;;;;;;;14.73;10.50;;;717.10;2329.60;;;;;;5095779;28;20111;-83
2022/05/28 13:07:44;;;;;;;15.80;10.32;;;716.90;2355.20;;;;;;5095373;28;20097;-81
2022/05/28 13:10:21;;;;;;;13.00;10.70;;;716.80;2355.20;;;;;;5096075;28;20024;-82
2022/05/28 13:13:03;;;;;;;15.75;11.38;;;691.90;2355.20;;;;;;5095867;28;20044;-82
2022/05/28 13:16:00;;;;;;;13.80;10.68;;;691.70;2380.80;;;;;;5096070;28;20028;-82
2022/05/28 13:19:25;;;;;;;15.60;10.65;;;691.50;2380.80;;;;;;5094955;28;20028;-82
2022/05/28 13:21:56;;;;;;;14.05;10.50;;;691.40;2380.80;;;;;;5018303;28;20065;-82
2022/05/28 13:24:55;;;;;;;15.02;10.10;;;691.20;2406.40;;;;;;5018365;28;20033;-83
2022/05/28 13:27:27;;;;;;;13.98;10.23;;;666.50;2432.00;;;;;;5073878;28;20471;-83
2022/05/28 13:30:03;;;;;;;12.88;9.73;;;666.50;2432.00;;;;;;5097202;28;20047;-80
2022/05/28 13:32:45;;;;;;;13.15;10.07;;;666.30;2432.00;;;;;;5095829;28;20070;-82
2022/05/28 13:35:13;;;;;;;17.55;9.68;;;665.90;2432.00;;;;;;5096035;28;20028;-83
2022/05/28 13:37:42;;;;;;;12.05;8.85;;;665.90;2432.00;;;;;;5095728;28;20525;-83
2022/05/28 13:40:16;;;;;;;11.60;9.80;;;665.90;2432.00;;;;;;5095538;28;20035;-81